createdAt,value
2018-01-14T00:01:35.583Z,6.30
2018-01-14T00:04:05.199Z,6.40
2018-01-14T00:06:34.107Z,6.30
2018-01-14T00:09:02.998Z,6.40
2018-01-14T00:11:31.857Z,6.40
2018-01-14T00:14:01.490Z,6.40
2018-01-14T00:16:31.122Z,6.40
2018-01-14T00:18:59.993Z,6.40
2018-01-14T00:21:28.928Z,6.50
2018-01-14T00:23:57.782Z,6.50
2018-01-14T00:26:26.655Z,6.50
2018-01-14T00:28:55.502Z,6.50
2018-01-14T00:31:25.898Z,6.40
2018-01-14T00:33:54.754Z,6.40
2018-01-14T00:36:23.618Z,6.40
2018-01-14T00:38:53.259Z,6.60
2018-01-14T00:41:22.892Z,6.70
2018-01-14T00:43:51.734Z,6.60
2018-01-14T00:46:20.572Z,6.50
2018-01-14T00:48:49.431Z,6.50
2018-01-14T00:51:18.272Z,6.40
2018-01-14T00:53:47.118Z,6.30
2018-01-14T00:56:15.950Z,6.30
2018-01-14T00:58:45.602Z,6.40
2018-01-14T01:01:14.468Z,6.30
2018-01-14T01:03:44.070Z,6.40
2018-01-14T01:06:13.710Z,6.50
2018-01-14T01:08:42.578Z,6.40
2018-01-14T01:11:11.441Z,6.40
2018-01-14T01:13:41.069Z,6.40
2018-01-14T01:16:10.675Z,6.40
2018-01-14T01:18:39.646Z,6.40
2018-01-14T01:21:08.490Z,6.40
2018-01-14T01:23:37.567Z,6.40
2018-01-14T01:26:06.420Z,6.20
2018-01-14T01:28:36.071Z,6.20
2018-01-14T01:31:04.957Z,6.20
2018-01-14T01:33:33.793Z,6.30
2018-01-14T01:36:02.630Z,6.20
2018-01-14T01:38:31.470Z,6.20
2018-01-14T01:41:00.315Z,6.30
2018-01-14T01:43:29.799Z,6.30
2018-01-14T01:45:59.423Z,6.20
2018-01-14T01:48:28.270Z,6.10
2018-01-14T01:50:57.125Z,6.30
2018-01-14T01:53:26.000Z,6.30
2018-01-14T01:55:54.958Z,6.40
2018-01-14T01:58:24.589Z,6.40
2018-01-14T02:00:54.180Z,6.40
2018-01-14T02:03:23.051Z,6.40
2018-01-14T02:05:51.873Z,6.40
2018-01-14T02:08:20.741Z,6.40
2018-01-14T02:10:50.335Z,6.20
2018-01-14T02:13:19.170Z,6.10
2018-01-14T02:15:48.006Z,6.10
2018-01-14T02:18:16.841Z,6.10
2018-01-14T02:20:45.777Z,6.20
2018-01-14T02:23:14.626Z,6.20
2018-01-14T02:25:43.471Z,6.20
2018-01-14T02:28:13.070Z,6.10
2018-01-14T02:30:43.440Z,6.00
2018-01-14T02:33:12.254Z,6.10
2018-01-14T02:35:41.116Z,6.10
2018-01-14T02:38:09.977Z,6.00
2018-01-14T02:40:39.634Z,6.00
2018-01-14T02:43:08.479Z,5.90
2018-01-14T02:45:38.088Z,6.00
2018-01-14T02:48:07.698Z,5.90
2018-01-14T02:50:37.326Z,5.90
2018-01-14T02:53:06.165Z,5.90
2018-01-14T02:55:35.011Z,5.90
2018-01-14T02:58:03.858Z,5.90
2018-01-14T03:00:33.480Z,5.80
2018-01-14T03:03:03.099Z,5.70
2018-01-14T03:05:32.693Z,5.80
2018-01-14T03:08:02.321Z,5.90
2018-01-14T03:10:31.161Z,5.90
2018-01-14T03:13:00.020Z,6.00
2018-01-14T03:15:28.843Z,5.90
2018-01-14T03:17:58.514Z,5.90
2018-01-14T03:20:28.314Z,5.90
2018-01-14T03:22:57.138Z,5.80
2018-01-14T03:25:25.977Z,5.80
2018-01-14T03:27:55.584Z,5.60
2018-01-14T03:30:25.271Z,5.60
2018-01-14T03:32:54.097Z,5.60
2018-01-14T03:35:22.920Z,5.70
2018-01-14T03:37:52.610Z,5.70
2018-01-14T03:40:21.462Z,5.70
2018-01-14T03:42:51.090Z,5.80
2018-01-14T03:45:19.920Z,5.70
2018-01-14T03:47:48.761Z,5.70
2018-01-14T03:50:18.400Z,5.60
2018-01-14T03:52:47.328Z,5.60
2018-01-14T03:55:16.137Z,5.70
2018-01-14T03:57:45.743Z,5.90
2018-01-14T04:00:15.358Z,5.90
2018-01-14T04:02:44.978Z,6.00
2018-01-14T04:05:13.805Z,5.90
2018-01-14T04:07:42.645Z,5.90
2018-01-14T04:10:12.250Z,5.90
2018-01-14T04:12:41.859Z,5.80
2018-01-14T04:15:10.737Z,5.80
2018-01-14T04:17:39.569Z,5.70
2018-01-14T04:20:08.387Z,5.60
2018-01-14T04:22:37.234Z,5.60
2018-01-14T04:25:06.089Z,5.60
2018-01-14T04:27:34.934Z,5.80
2018-01-14T04:30:03.768Z,5.80
2018-01-14T04:32:32.626Z,5.90
2018-01-14T04:35:02.246Z,6.00
2018-01-14T04:37:31.850Z,5.90
2018-01-14T04:40:01.463Z,6.00
2018-01-14T04:42:31.070Z,6.00
2018-01-14T04:45:00.698Z,6.00
2018-01-14T04:47:29.528Z,5.90
2018-01-14T04:49:58.378Z,5.90
2018-01-14T04:52:27.218Z,5.90
2018-01-14T04:54:56.053Z,5.90
2018-01-14T04:57:24.908Z,5.80
2018-01-14T04:59:54.533Z,5.70
2018-01-14T05:02:24.131Z,5.80
2018-01-14T05:04:53.769Z,5.80
2018-01-14T05:07:22.608Z,5.70
2018-01-14T05:09:51.451Z,5.80
2018-01-14T05:12:20.312Z,5.70
2018-01-14T05:14:49.147Z,5.60
2018-01-14T05:17:18.003Z,5.70
2018-01-14T05:19:47.594Z,5.70
2018-01-14T05:22:17.544Z,5.80
2018-01-14T05:24:46.387Z,5.70
2018-01-14T05:27:15.233Z,5.80
2018-01-14T05:29:44.077Z,5.80
2018-01-14T05:32:13.691Z,5.80
2018-01-14T05:34:43.297Z,5.80
2018-01-14T05:37:12.918Z,5.80
2018-01-14T05:39:42.545Z,5.90
2018-01-14T05:42:11.402Z,5.80
2018-01-14T05:44:40.990Z,5.90
2018-01-14T05:47:09.828Z,5.90
2018-01-14T05:49:38.676Z,5.90
2018-01-14T05:52:08.298Z,5.70
2018-01-14T05:54:37.917Z,5.70
2018-01-14T05:57:07.526Z,5.70
2018-01-14T05:59:36.368Z,5.60
2018-01-14T06:02:05.192Z,5.70
2018-01-14T06:04:34.845Z,5.90
2018-01-14T06:07:03.714Z,5.80
2018-01-14T06:09:32.553Z,5.90
2018-01-14T06:12:01.394Z,5.90
2018-01-14T06:14:30.242Z,6.00
2018-01-14T06:16:59.079Z,6.00
2018-01-14T06:19:29.010Z,6.10
2018-01-14T06:21:58.661Z,6.10
2018-01-14T06:24:27.505Z,6.10
2018-01-14T06:26:57.121Z,6.10
2018-01-14T06:29:26.726Z,6.10
2018-01-14T06:31:56.363Z,6.00
2018-01-14T06:34:25.218Z,6.00
2018-01-14T06:36:54.854Z,5.90
2018-01-14T06:39:23.702Z,5.90
2018-01-14T06:41:53.351Z,5.90
2018-01-14T06:44:22.194Z,5.90
2018-01-14T06:46:51.111Z,5.70
2018-01-14T06:49:20.702Z,5.20
2018-01-14T06:51:50.346Z,5.00
2018-01-14T06:54:20.338Z,5.00
2018-01-14T06:56:50.429Z,5.00
2018-01-14T06:59:19.344Z,5.00
2018-01-14T07:01:48.960Z,4.90
2018-01-14T07:04:18.574Z,4.70
2018-01-14T07:06:47.429Z,4.60
2018-01-14T07:09:16.294Z,4.50
2018-01-14T07:11:45.174Z,4.40
2018-01-14T07:14:14.018Z,4.40
2018-01-14T07:16:43.630Z,4.50
2018-01-14T07:19:13.318Z,4.50
2018-01-14T07:21:42.158Z,4.40
2018-01-14T07:24:11.045Z,4.30
2018-01-14T07:26:39.886Z,4.30
2018-01-14T07:29:08.743Z,4.30
2018-01-14T07:31:37.573Z,4.30
2018-01-14T07:34:07.194Z,4.40
2018-01-14T07:36:36.930Z,4.60
2018-01-14T07:39:05.777Z,4.60
2018-01-14T07:41:35.397Z,4.80
2018-01-14T07:44:04.339Z,4.70
2018-01-14T07:46:33.997Z,4.80
2018-01-14T07:49:02.891Z,5.00
2018-01-14T07:51:33.521Z,5.20
2018-01-14T07:54:03.162Z,5.30
2018-01-14T07:56:32.004Z,5.30
2018-01-14T07:59:00.845Z,5.40
2018-01-14T08:01:29.686Z,5.40
2018-01-14T08:03:59.335Z,5.30
2018-01-14T08:06:28.577Z,5.30
2018-01-14T08:08:57.425Z,5.30
2018-01-14T08:11:26.269Z,5.30
2018-01-14T08:13:56.502Z,5.40
2018-01-14T08:16:26.142Z,5.30
2018-01-14T08:18:54.994Z,5.30
2018-01-14T08:21:24.615Z,5.30
2018-01-14T08:23:54.227Z,5.20
2018-01-14T08:26:23.839Z,5.30
2018-01-14T08:28:52.670Z,5.20
2018-01-14T08:31:21.534Z,5.20
2018-01-14T08:33:50.350Z,5.20
2018-01-14T08:36:19.218Z,5.30
2018-01-14T08:38:48.062Z,5.40
2018-01-14T08:41:16.910Z,5.40
2018-01-14T08:43:45.765Z,5.40
2018-01-14T08:46:15.362Z,5.40
2018-01-14T08:48:44.962Z,5.50
2018-01-14T08:51:14.582Z,5.50
2018-01-14T08:53:43.410Z,5.40
2018-01-14T08:56:12.495Z,5.50
2018-01-14T08:58:41.314Z,5.50
2018-01-14T09:01:10.169Z,5.40
2018-01-14T09:03:39.031Z,5.40
2018-01-14T09:06:08.646Z,5.50
2018-01-14T09:08:38.248Z,5.50
2018-01-14T09:11:07.084Z,5.40
2018-01-14T09:13:35.942Z,5.30
2018-01-14T09:16:04.782Z,5.20
2018-01-14T09:18:34.526Z,5.30
2018-01-14T09:21:03.365Z,5.20
2018-01-14T09:23:32.223Z,5.30
2018-01-14T09:26:01.056Z,5.40
2018-01-14T09:28:30.701Z,5.50
2018-01-14T09:31:03.547Z,5.50
2018-01-14T09:33:33.166Z,5.40
2018-01-14T09:36:02.793Z,5.50
2018-01-14T09:38:31.643Z,5.40
2018-01-14T09:41:00.489Z,5.50
2018-01-14T09:43:29.350Z,5.50
2018-01-14T09:45:58.203Z,5.60
2018-01-14T09:48:27.042Z,5.70
2018-01-14T09:50:55.888Z,5.70
2018-01-14T09:53:24.726Z,5.60
2018-01-14T09:55:53.581Z,5.70
2018-01-14T09:58:23.632Z,5.80
2018-01-14T10:00:52.489Z,5.70
2018-01-14T10:03:22.135Z,5.80
2018-01-14T10:05:51.434Z,5.70
2018-01-14T10:08:21.046Z,5.60
2018-01-14T10:10:49.890Z,5.60
2018-01-14T10:13:19.515Z,5.70
2018-01-14T10:15:48.373Z,5.70
2018-01-14T10:18:17.222Z,5.80
2018-01-14T10:20:46.121Z,5.80
2018-01-14T10:23:14.924Z,5.80
2018-01-14T10:25:44.541Z,6.30
2018-01-14T10:28:14.144Z,6.60
2018-01-14T10:30:44.109Z,6.80
2018-01-14T10:33:12.972Z,6.80
2018-01-14T10:35:41.810Z,7.20
2018-01-14T10:38:12.294Z,10.10
2018-01-14T10:40:41.997Z,10.10
2018-01-14T10:43:10.865Z,10.90
2018-01-14T10:45:39.721Z,11.00
2018-01-14T10:48:10.081Z,10.00
2018-01-14T10:50:39.719Z,9.60
2018-01-14T10:53:08.570Z,9.60
2018-01-14T10:55:38.210Z,11.30
2018-01-14T10:58:07.043Z,11.30
2018-01-14T11:00:42.302Z,13.30
2018-01-14T11:03:11.932Z,13.60
2018-01-14T11:05:40.778Z,13.50
2018-01-14T11:08:09.616Z,13.90
2018-01-14T11:10:38.480Z,14.90
2018-01-14T11:13:08.105Z,16.00
2018-01-14T11:15:37.731Z,16.10
2018-01-14T11:18:06.639Z,16.10
2018-01-14T11:20:36.233Z,16.20
2018-01-14T11:23:05.082Z,16.10
2018-01-14T11:25:34.707Z,16.50
2018-01-14T11:28:04.397Z,16.60
2018-01-14T11:30:33.813Z,16.50
2018-01-14T11:33:03.447Z,15.90
2018-01-14T11:35:32.290Z,15.90
2018-01-14T11:38:01.148Z,15.80
2018-01-14T11:40:30.123Z,15.70
2018-01-14T11:42:58.987Z,15.20
2018-01-14T11:45:28.611Z,15.00
2018-01-14T11:47:57.472Z,15.00
2018-01-14T11:50:27.110Z,15.30
2018-01-14T11:52:55.976Z,15.20
2018-01-14T11:55:25.618Z,15.80
2018-01-14T11:57:54.511Z,15.70
2018-01-14T12:00:23.369Z,16.30
2018-01-14T12:02:52.979Z,16.80
2018-01-14T12:05:22.591Z,16.80
2018-01-14T12:07:52.214Z,16.80
2018-01-14T12:10:21.099Z,16.80
2018-01-14T12:12:49.946Z,16.80
2018-01-14T12:15:19.510Z,17.00
2018-01-14T12:17:48.364Z,17.50
2018-01-14T12:20:17.238Z,17.50
2018-01-14T12:22:46.078Z,17.60
2018-01-14T12:25:14.926Z,17.50
2018-01-14T12:27:43.835Z,17.20
2018-01-14T12:30:13.527Z,16.80
2018-01-14T12:32:54.268Z,16.90
2018-01-14T12:35:23.892Z,17.10
2018-01-14T12:37:53.510Z,16.70
2018-01-14T12:40:22.386Z,16.60
2018-01-14T12:42:51.266Z,15.30
2018-01-14T12:45:20.297Z,14.10
2018-01-14T12:47:49.185Z,13.00
2018-01-14T12:50:18.214Z,12.00
2018-01-14T12:52:47.173Z,11.10
2018-01-14T12:55:16.050Z,10.50
2018-01-14T12:57:44.905Z,9.80
2018-01-14T13:00:14.525Z,8.70
2018-01-14T13:02:44.169Z,8.40
2018-01-14T13:05:13.049Z,8.40
2018-01-14T13:07:41.865Z,8.10
2018-01-14T13:10:10.701Z,8.00
2018-01-14T13:12:39.567Z,7.90
2018-01-14T13:15:09.888Z,7.80
2018-01-14T13:17:40.325Z,7.70
2018-01-14T13:20:09.528Z,7.60
2018-01-14T13:22:40.247Z,7.70
2018-01-14T13:25:09.842Z,7.60
2018-01-14T13:27:39.489Z,7.70
2018-01-14T13:30:11.441Z,7.60
2018-01-14T13:32:41.914Z,7.70
2018-01-14T13:35:11.594Z,7.70
2018-01-14T13:37:40.463Z,7.70
2018-01-14T13:40:09.344Z,7.80
2018-01-14T13:42:39.008Z,7.80
2018-01-14T13:45:07.897Z,7.70
2018-01-14T13:47:37.540Z,7.80
2018-01-14T13:50:08.358Z,7.80
2018-01-14T13:52:37.978Z,7.90
2018-01-14T13:55:07.610Z,7.90
2018-01-14T13:57:36.477Z,7.80
2018-01-14T14:00:06.095Z,7.90
2018-01-14T14:02:35.703Z,7.80
2018-01-14T14:05:04.570Z,7.70
2018-01-14T14:07:33.409Z,7.60
2018-01-14T14:10:02.278Z,7.50
2018-01-14T14:12:31.895Z,7.30
2018-01-14T14:15:00.754Z,7.30
2018-01-14T14:17:30.410Z,7.20
2018-01-14T14:19:59.241Z,7.20
2018-01-14T14:22:28.116Z,7.20
2018-01-14T14:24:57.722Z,7.20
2018-01-14T14:27:27.361Z,6.90
2018-01-14T14:29:56.898Z,7.00
2018-01-14T14:32:25.738Z,7.00
2018-01-14T14:34:54.599Z,7.10
2018-01-14T14:37:23.462Z,7.10
2018-01-14T14:39:52.322Z,7.00
2018-01-14T14:42:21.175Z,7.00
2018-01-14T14:44:50.260Z,6.90
2018-01-14T14:47:19.880Z,6.80
2018-01-14T14:49:49.507Z,6.90
2018-01-14T14:52:19.228Z,6.90
2018-01-14T14:54:48.063Z,7.00
2018-01-14T14:57:17.512Z,7.10
2018-01-14T14:59:46.391Z,7.10
2018-01-14T15:02:15.259Z,7.10
2018-01-14T15:04:44.122Z,7.00
2018-01-14T15:07:13.018Z,7.00
2018-01-14T15:09:41.876Z,7.00
2018-01-14T15:12:11.586Z,7.00
2018-01-14T15:14:40.450Z,7.10
2018-01-14T15:17:09.317Z,7.10
2018-01-14T15:19:38.964Z,7.20
2018-01-14T15:22:08.577Z,7.00
2018-01-14T15:24:38.186Z,7.00
2018-01-14T15:27:07.800Z,7.00
2018-01-14T15:29:37.453Z,7.00
2018-01-14T15:32:06.316Z,7.00
2018-01-14T15:34:35.202Z,7.10
2018-01-14T15:37:04.082Z,7.00
2018-01-14T15:39:32.910Z,7.00
2018-01-14T15:42:02.604Z,6.90
2018-01-14T15:44:31.463Z,6.90
2018-01-14T15:47:01.269Z,6.90
2018-01-14T15:49:31.522Z,6.80
2018-01-14T15:52:00.391Z,6.80
2018-01-14T15:54:30.028Z,6.70
2018-01-14T15:56:58.863Z,6.60
2018-01-14T15:59:27.709Z,6.60
2018-01-14T16:01:57.397Z,6.60
2018-01-14T16:04:26.255Z,6.60
2018-01-14T16:06:55.112Z,6.60
2018-01-14T16:09:23.954Z,6.50
2018-01-14T16:11:53.567Z,6.50
2018-01-14T16:14:23.164Z,6.40
2018-01-14T16:16:52.754Z,6.30
2018-01-14T16:19:21.626Z,6.20
2018-01-14T16:21:50.511Z,6.20
2018-01-14T16:24:19.370Z,6.20
2018-01-14T16:26:49.185Z,6.20
2018-01-14T16:29:18.824Z,6.20
2018-01-14T16:31:48.439Z,6.20
2018-01-14T16:34:18.047Z,6.20
2018-01-14T16:36:47.670Z,6.10
2018-01-14T16:39:17.279Z,6.10
2018-01-14T16:41:46.395Z,6.00
2018-01-14T16:44:15.254Z,6.10
2018-01-14T16:46:44.893Z,6.10
2018-01-14T16:49:13.758Z,6.00
2018-01-14T16:51:42.631Z,6.10
2018-01-14T16:54:12.228Z,6.00
2018-01-14T16:56:41.919Z,6.00
2018-01-14T16:59:10.732Z,5.90
2018-01-14T17:01:40.351Z,5.90
2018-01-14T17:04:09.968Z,5.90
2018-01-14T17:06:39.697Z,5.70
2018-01-14T17:09:08.585Z,5.70
2018-01-14T17:11:38.191Z,5.70
2018-01-14T17:14:07.068Z,5.60
2018-01-14T17:16:36.107Z,5.50
2018-01-14T17:19:04.933Z,5.40
2018-01-14T17:21:35.613Z,5.40
2018-01-14T17:24:06.480Z,5.30
2018-01-14T17:26:35.342Z,5.30
2018-01-14T17:29:04.985Z,5.30
2018-01-14T17:31:33.845Z,5.30
2018-01-14T17:34:03.467Z,5.10
2018-01-14T17:36:33.055Z,5.20
2018-01-14T17:39:02.694Z,5.20
2018-01-14T17:41:31.547Z,5.10
2018-01-14T17:44:01.178Z,5.10
2018-01-14T17:46:30.780Z,5.10
2018-01-14T17:49:00.389Z,5.20
2018-01-14T17:51:30.008Z,5.20
2018-01-14T17:53:58.863Z,5.20
2018-01-14T17:56:28.914Z,5.30
2018-01-14T17:58:58.348Z,5.30
2018-01-14T18:01:27.209Z,5.30
2018-01-14T18:03:56.067Z,5.30
2018-01-14T18:06:25.594Z,5.30
2018-01-14T18:08:54.432Z,5.20
2018-01-14T18:11:23.294Z,5.30
2018-01-14T18:13:52.134Z,5.20
2018-01-14T18:16:21.755Z,5.10
2018-01-14T18:18:51.386Z,5.10
2018-01-14T18:21:20.223Z,5.10
2018-01-14T18:23:49.090Z,5.10
2018-01-14T18:26:17.925Z,5.10
2018-01-14T18:28:46.792Z,5.10
2018-01-14T18:31:15.652Z,5.10
2018-01-14T18:33:44.534Z,5.10
2018-01-14T18:36:14.125Z,5.00
2018-01-14T18:38:43.764Z,5.00
2018-01-14T18:41:13.432Z,5.00
2018-01-14T18:43:43.060Z,5.00
2018-01-14T18:46:12.695Z,4.90
2018-01-14T18:48:41.609Z,4.80
2018-01-14T18:51:10.438Z,4.90
2018-01-14T18:53:40.059Z,4.90
2018-01-14T18:56:09.145Z,4.80
2018-01-14T18:58:38.038Z,4.80
2018-01-14T19:01:07.666Z,4.80
2018-01-14T19:03:36.534Z,4.70
2018-01-14T19:06:05.604Z,4.70
2018-01-14T19:08:34.630Z,4.70
2018-01-14T19:11:04.272Z,4.70
2018-01-14T19:13:33.139Z,4.70
2018-01-14T19:16:01.962Z,4.70
2018-01-14T19:18:30.817Z,4.70
2018-01-14T19:20:59.671Z,4.70
2018-01-14T19:23:28.485Z,4.60
2018-01-14T19:25:58.078Z,4.50
2018-01-14T19:28:26.935Z,4.50
2018-01-14T19:30:56.571Z,4.40
2018-01-14T19:33:25.859Z,4.30
2018-01-14T19:35:54.720Z,4.30
2018-01-14T19:38:24.407Z,4.10
2018-01-14T19:40:53.251Z,4.10
2018-01-14T19:43:22.117Z,4.20
2018-01-14T19:45:52.080Z,4.10
2018-01-14T19:48:20.947Z,4.10
2018-01-14T19:50:49.808Z,4.10
2018-01-14T19:53:19.763Z,4.20
2018-01-14T19:55:48.608Z,4.10
2018-01-14T19:58:18.301Z,4.30
2018-01-14T20:00:47.972Z,4.30
2018-01-14T20:03:16.806Z,4.30
2018-01-14T20:05:46.455Z,4.30
2018-01-14T20:08:15.532Z,4.30
2018-01-14T20:10:45.194Z,4.30
2018-01-14T20:13:14.075Z,4.30
2018-01-14T20:15:42.940Z,4.30
2018-01-14T20:18:11.789Z,4.30
2018-01-14T20:20:41.457Z,4.30
2018-01-14T20:23:10.296Z,4.20
2018-01-14T20:25:39.171Z,4.30
2018-01-14T20:28:08.031Z,4.20
2018-01-14T20:30:36.930Z,4.20
2018-01-14T20:33:05.769Z,4.10
2018-01-14T20:35:34.720Z,4.00
2018-01-14T20:38:03.606Z,4.00
2018-01-14T20:40:32.452Z,3.90
2018-01-14T20:43:02.134Z,4.00
2018-01-14T20:45:31.410Z,3.90
2018-01-14T20:48:00.280Z,3.90
2018-01-14T20:50:29.184Z,4.00
2018-01-14T20:52:58.167Z,4.10
2018-01-14T20:55:27.002Z,4.10
2018-01-14T20:57:55.848Z,4.00
2018-01-14T21:00:24.815Z,4.10
2018-01-14T21:02:53.662Z,4.00
2018-01-14T21:05:22.524Z,4.10
2018-01-14T21:07:51.401Z,4.10
2018-01-14T21:10:21.073Z,4.20
2018-01-14T21:12:49.918Z,4.20
2018-01-14T21:15:18.751Z,4.00
2018-01-14T21:17:48.427Z,4.10
2018-01-14T21:20:17.302Z,4.00
2018-01-14T21:22:46.868Z,4.10
2018-01-14T21:25:17.067Z,4.30
2018-01-14T21:27:47.662Z,4.20
2018-01-14T21:30:17.290Z,4.20
2018-01-14T21:32:46.155Z,4.10
2018-01-14T21:35:15.845Z,4.20
2018-01-14T21:37:44.726Z,4.20
2018-01-14T21:40:13.573Z,4.20
2018-01-14T21:42:42.430Z,4.30
2018-01-14T21:45:12.046Z,4.20
2018-01-14T21:47:40.905Z,4.10
2018-01-14T21:50:09.763Z,4.20
2018-01-14T21:52:38.633Z,4.20
2018-01-14T21:55:08.381Z,4.20
2018-01-14T21:57:37.258Z,4.20
2018-01-14T22:00:06.126Z,4.20
2018-01-14T22:02:34.956Z,4.30
2018-01-14T22:05:03.864Z,4.10
2018-01-14T22:07:33.629Z,4.20
2018-01-14T22:10:02.486Z,4.20
2018-01-14T22:12:32.206Z,4.30
2018-01-14T22:15:01.790Z,4.30
2018-01-14T22:17:31.397Z,4.40
2018-01-14T22:20:00.724Z,4.30
2018-01-14T22:22:29.560Z,4.40
2018-01-14T22:25:01.275Z,4.30
2018-01-14T22:27:30.871Z,4.50
2018-01-14T22:30:00.510Z,4.60
2018-01-14T22:32:29.878Z,4.50
2018-01-14T22:34:59.510Z,4.50
2018-01-14T22:37:28.375Z,4.50
2018-01-14T22:39:57.258Z,4.50
2018-01-14T22:42:26.897Z,4.50
2018-01-14T22:44:55.755Z,4.40
2018-01-14T22:47:25.421Z,4.40
2018-01-14T22:49:55.631Z,4.40
2018-01-14T22:52:24.485Z,4.30
2018-01-14T22:54:54.089Z,4.50
2018-01-14T22:57:23.722Z,4.50
2018-01-14T22:59:52.567Z,4.40
2018-01-14T23:02:21.432Z,4.50
2018-01-14T23:04:50.288Z,4.50
2018-01-14T23:07:19.148Z,4.40
2018-01-14T23:09:48.754Z,4.40
2018-01-14T23:12:18.370Z,4.20
2018-01-14T23:14:53.754Z,4.20
2018-01-14T23:17:22.606Z,4.10
2018-01-14T23:19:52.213Z,4.20
2018-01-14T23:22:21.828Z,4.20
2018-01-14T23:24:50.661Z,4.20
2018-01-14T23:27:19.514Z,4.10
2018-01-14T23:29:48.746Z,4.10
2018-01-14T23:32:17.536Z,4.20
2018-01-14T23:34:46.380Z,4.20
2018-01-14T23:37:15.218Z,4.00
2018-01-14T23:39:44.067Z,4.00
2018-01-14T23:42:12.918Z,4.00
2018-01-14T23:44:42.525Z,4.00
2018-01-14T23:47:12.141Z,4.10
2018-01-14T23:49:41.815Z,4.00
2018-01-14T23:52:10.643Z,4.00
2018-01-14T23:54:39.513Z,4.10
2018-01-14T23:57:08.342Z,4.00
2018-01-14T23:59:37.178Z,4.00
